Terminal Aerodrome Forecast
Issued by NWS

Home | Current Version | Previous Version | Text Only | Print | Product List | Glossary On
Versions: 1 2 3 4 5 6 7 8 9 10 11 12 13 14 15 16
812
FTUS44 KBMX 230520
TAFTOI
TAF
KTOI 230520Z 2306/2406 16012G17KT 4SM RA BR SCT025 BKN045 OVC110
     FM230900 17007KT 4SM BR VCSH OVC008
     FM231100 21006KT 2SM BR OVC007
     FM231500 29012G18KT P6SM BKN025=

USA.gov is the U.S. government's official web portal to all federal, state and local government web resources and services.